createdAt,value
2022-10-05T00:00:19.724Z,8.32
2022-10-05T00:02:48.172Z,8.55
2022-10-05T00:05:27.154Z,6.95
2022-10-05T00:07:57.453Z,5.03
2022-10-05T00:10:24.480Z,5.68
2022-10-05T00:12:51.462Z,6.85
2022-10-05T00:15:20.966Z,8.48
2022-10-05T00:17:48.050Z,4.18
2022-10-05T00:20:19.349Z,6.05
2022-10-05T00:22:47.095Z,9.25
2022-10-05T00:25:19.343Z,5.65
2022-10-05T00:27:56.973Z,6.50
2022-10-05T00:30:26.488Z,6.32
2022-10-05T00:32:58.699Z,5.82
2022-10-05T00:35:29.285Z,9.25
2022-10-05T00:37:57.075Z,8.93
2022-10-05T00:40:46.165Z,6.90
2022-10-05T00:43:35.141Z,5.07
2022-10-05T00:46:12.154Z,6.32
2022-10-05T00:48:52.369Z,7.90
2022-10-05T00:51:30.585Z,6.28
2022-10-05T00:54:05.920Z,6.40
2022-10-05T00:56:51.057Z,4.10
2022-10-05T00:59:33.800Z,4.28
2022-10-05T01:02:11.482Z,6.55
2022-10-05T01:04:54.733Z,9.27
2022-10-05T01:07:46.747Z,4.82
2022-10-05T01:10:26.830Z,11.57
2022-10-05T01:12:56.426Z,6.18
2022-10-05T01:15:36.552Z,4.35
2022-10-05T01:18:18.499Z,5.20
2022-10-05T01:21:14.036Z,4.68
2022-10-05T01:23:57.021Z,3.85
2022-10-05T01:26:36.306Z,4.53
2022-10-05T01:29:30.978Z,4.03
2022-10-05T01:32:20.437Z,5.47
2022-10-05T01:34:53.350Z,4.03
2022-10-05T01:37:32.506Z,4.77
2022-10-05T01:40:08.440Z,4.45
2022-10-05T01:43:14.329Z,4.78
2022-10-05T01:46:19.725Z,8.93
2022-10-05T01:49:24.634Z,6.55
2022-10-05T01:52:06.569Z,6.07
2022-10-05T01:54:47.298Z,5.65
2022-10-05T01:57:38.948Z,5.32
2022-10-05T02:00:09.364Z,5.12
2022-10-05T02:02:49.236Z,5.95
2022-10-05T02:05:24.782Z,4.43
2022-10-05T02:07:57.262Z,4.57
2022-10-05T02:13:15.949Z,7.22
2022-10-05T02:16:09.261Z,4.37
2022-10-05T02:18:43.907Z,5.37
2022-10-05T02:21:11.220Z,10.10
2022-10-05T02:23:41.005Z,5.75
2022-10-05T02:26:11.748Z,5.93
2022-10-05T02:28:45.826Z,6.55
2022-10-05T02:31:16.194Z,10.80
2022-10-05T02:33:43.548Z,8.75
2022-10-05T02:36:11.198Z,12.27
2022-10-05T02:38:44.286Z,11.30
2022-10-05T02:41:30.327Z,6.72
2022-10-05T02:44:09.532Z,9.75
2022-10-05T02:46:53.095Z,8.68
2022-10-05T02:50:06.913Z,11.68
2022-10-05T02:53:07.745Z,7.90
2022-10-05T02:55:41.040Z,12.52
2022-10-05T02:58:21.225Z,9.07
2022-10-05T03:00:59.186Z,7.93
2022-10-05T03:03:39.945Z,9.38
2022-10-05T03:06:18.930Z,8.93
2022-10-05T03:09:05.681Z,11.12
2022-10-05T03:11:41.218Z,9.00
2022-10-05T03:14:14.690Z,8.52
2022-10-05T03:17:10.950Z,9.07
2022-10-05T03:19:55.865Z,9.90
2022-10-05T03:22:48.526Z,10.48
2022-10-05T03:25:34.882Z,8.93
2022-10-05T03:28:18.472Z,10.63
2022-10-05T03:30:55.878Z,7.35
2022-10-05T03:33:57.241Z,6.70
2022-10-05T03:36:37.378Z,8.25
2022-10-05T03:39:11.213Z,4.93
2022-10-05T03:44:24.321Z,11.75
2022-10-05T03:47:36.905Z,5.72
2022-10-05T03:50:13.222Z,4.80
2022-10-05T03:52:51.401Z,9.73
2022-10-05T03:55:21.746Z,4.75
2022-10-05T03:57:50.360Z,6.12
2022-10-05T04:00:20.163Z,5.22
2022-10-05T04:02:51.052Z,5.05
2022-10-05T04:05:28.782Z,10.05
2022-10-05T04:08:28.702Z,6.18
2022-10-05T04:10:58.352Z,7.18
2022-10-05T04:13:29.287Z,6.20
2022-10-05T04:16:02.833Z,5.35
2022-10-05T04:21:24.091Z,5.80
2022-10-05T04:24:06.400Z,6.45
2022-10-05T04:26:49.904Z,6.28
2022-10-05T04:29:37.782Z,4.93
2022-10-05T04:32:25.072Z,6.15
2022-10-05T04:35:11.391Z,8.02
2022-10-05T04:37:51.297Z,8.70
2022-10-05T04:40:24.497Z,3.92
2022-10-05T04:43:23.701Z,7.45
2022-10-05T04:45:56.676Z,6.05
2022-10-05T04:48:48.824Z,11.43
2022-10-05T04:51:34.595Z,8.02
2022-10-05T04:54:13.112Z,5.00
2022-10-05T04:56:53.571Z,5.50
2022-10-05T04:59:29.755Z,11.38
2022-10-05T05:02:39.556Z,4.10
2022-10-05T05:05:15.854Z,6.50
2022-10-05T05:08:06.939Z,6.72
2022-10-05T05:11:16.169Z,7.07
2022-10-05T05:13:57.910Z,7.47
2022-10-05T05:16:36.250Z,5.72
2022-10-05T05:19:04.165Z,7.15
2022-10-05T05:21:39.941Z,6.10
2022-10-05T05:24:31.472Z,10.43
2022-10-05T05:27:03.746Z,7.85
2022-10-05T05:29:37.385Z,8.18
2022-10-05T05:32:17.747Z,7.87
2022-10-05T05:35:05.167Z,13.25
2022-10-05T05:37:36.284Z,7.80
2022-10-05T05:40:26.668Z,9.40
2022-10-05T05:43:00.762Z,8.13
2022-10-05T05:45:28.055Z,5.57
2022-10-05T05:47:59.342Z,8.35
2022-10-05T05:50:45.224Z,8.77
2022-10-05T05:53:27.472Z,11.45
2022-10-05T05:56:00.674Z,9.88
2022-10-05T05:58:39.703Z,6.25
2022-10-05T06:01:32.133Z,5.57
2022-10-05T06:04:15.297Z,9.55
2022-10-05T06:06:46.800Z,8.40
2022-10-05T06:09:23.542Z,5.50
2022-10-05T06:11:57.362Z,11.25
2022-10-05T06:14:29.041Z,6.77
2022-10-05T06:17:24.133Z,8.20
2022-10-05T06:19:53.924Z,12.82
2022-10-05T06:22:29.315Z,9.25
2022-10-05T06:25:12.031Z,8.05
2022-10-05T06:28:00.330Z,7.40
2022-10-05T06:30:49.728Z,7.68
2022-10-05T06:33:43.950Z,8.73
2022-10-05T06:36:39.747Z,7.07
2022-10-05T06:40:00.052Z,9.55
2022-10-05T06:42:36.159Z,5.55
2022-10-05T06:45:18.797Z,7.07
2022-10-05T06:47:53.961Z,5.57
2022-10-05T06:50:37.110Z,5.87
2022-10-05T06:53:22.802Z,6.93
2022-10-05T06:55:56.901Z,7.97
2022-10-05T06:58:46.370Z,6.80
2022-10-05T07:01:25.809Z,7.53
2022-10-05T07:04:37.135Z,7.05
2022-10-05T07:07:07.349Z,8.18
2022-10-05T07:09:53.489Z,8.73
2022-10-05T07:12:26.408Z,8.90
2022-10-05T07:14:59.884Z,6.20
2022-10-05T07:17:50.103Z,11.53
2022-10-05T07:20:26.280Z,7.30
2022-10-05T07:23:20.030Z,9.25
2022-10-05T07:25:47.627Z,8.07
2022-10-05T07:28:58.204Z,7.90
2022-10-05T07:31:35.248Z,12.70
2022-10-05T07:34:07.113Z,17.75
2022-10-05T07:37:18.477Z,10.30
2022-10-05T07:40:08.073Z,15.93
2022-10-05T07:42:51.707Z,15.50
2022-10-05T07:47:58.686Z,10.85
2022-10-05T07:50:34.925Z,13.73
2022-10-05T07:53:06.707Z,15.20
2022-10-05T07:55:54.737Z,15.07
2022-10-05T07:58:37.244Z,20.88
2022-10-05T08:01:14.031Z,12.77
2022-10-05T08:04:01.276Z,12.68
2022-10-05T08:06:43.389Z,14.98
2022-10-05T08:09:52.489Z,11.38
2022-10-05T08:12:32.004Z,15.10
2022-10-05T08:15:15.444Z,17.65
2022-10-05T08:17:49.594Z,15.82
2022-10-05T08:20:50.783Z,8.85
2022-10-05T08:23:17.883Z,15.18
2022-10-05T08:26:22.765Z,13.90
2022-10-05T08:29:16.624Z,11.05
2022-10-05T08:31:47.045Z,14.98
2022-10-05T08:34:23.872Z,10.18
2022-10-05T08:37:03.177Z,9.23
2022-10-05T08:39:34.289Z,7.68
2022-10-05T08:42:23.544Z,18.90
2022-10-05T08:44:53.161Z,9.30
2022-10-05T08:47:50.556Z,11.95
2022-10-05T08:50:36.350Z,9.70
2022-10-05T08:53:28.429Z,11.88
2022-10-05T08:56:07.228Z,15.65
2022-10-05T08:58:40.349Z,11.95
2022-10-05T09:01:30.230Z,12.32
2022-10-05T09:04:22.678Z,9.23
2022-10-05T09:07:22.210Z,8.93
2022-10-05T09:10:18.792Z,12.45
2022-10-05T09:12:56.919Z,14.13
2022-10-05T09:15:35.102Z,11.45
2022-10-05T09:18:23.711Z,13.70
2022-10-05T09:21:09.868Z,13.52
2022-10-05T09:23:42.938Z,15.40
2022-10-05T09:26:41.744Z,12.77
2022-10-05T09:29:38.916Z,14.87
2022-10-05T09:32:18.469Z,15.15
2022-10-05T09:35:22.305Z,10.60
2022-10-05T09:38:13.384Z,11.10
2022-10-05T09:41:14.882Z,12.70
2022-10-05T09:43:57.469Z,13.95
2022-10-05T09:46:52.483Z,8.98
2022-10-05T09:49:38.249Z,10.88
2022-10-05T09:53:04.939Z,15.00
2022-10-05T09:55:47.157Z,10.70
2022-10-05T09:58:33.339Z,10.38
2022-10-05T10:01:34.259Z,8.90
2022-10-05T10:04:21.080Z,7.60
2022-10-05T10:07:25.677Z,6.30
2022-10-05T10:09:59.853Z,6.62
2022-10-05T10:15:23.986Z,6.97
2022-10-05T10:18:09.266Z,8.32
2022-10-05T10:20:45.618Z,9.48
2022-10-05T10:23:27.487Z,9.60
2022-10-05T10:25:57.790Z,11.32
2022-10-05T10:29:02.157Z,11.10
2022-10-05T10:31:29.449Z,14.55
2022-10-05T10:34:14.546Z,11.40
2022-10-05T10:37:12.370Z,10.48
2022-10-05T10:39:47.652Z,11.15
2022-10-05T10:42:49.115Z,10.82
2022-10-05T10:45:28.660Z,8.27
2022-10-05T10:48:19.197Z,7.95
2022-10-05T10:51:23.276Z,10.45
2022-10-05T10:54:20.284Z,7.68
2022-10-05T10:56:52.976Z,9.70
2022-10-05T10:59:57.976Z,7.62
2022-10-05T11:02:37.233Z,6.87
2022-10-05T11:05:23.395Z,8.48
2022-10-05T11:07:57.089Z,4.68
2022-10-05T11:10:33.033Z,7.30
2022-10-05T11:13:38.230Z,9.05
2022-10-05T11:16:30.566Z,11.50
2022-10-05T11:19:30.912Z,8.63
2022-10-05T11:22:44.295Z,7.05
2022-10-05T11:25:48.735Z,4.95
2022-10-05T11:31:06.699Z,8.88
2022-10-05T11:33:58.313Z,6.28
2022-10-05T11:36:34.377Z,3.83
2022-10-05T11:39:18.833Z,3.70
2022-10-05T11:42:00.777Z,3.45
2022-10-05T11:44:50.558Z,6.78
2022-10-05T11:47:26.676Z,5.25
2022-10-05T11:50:17.125Z,3.47
2022-10-05T11:53:13.043Z,5.07
2022-10-05T11:56:09.467Z,4.45
2022-10-05T11:58:44.072Z,5.45
2022-10-05T12:01:40.249Z,6.53
2022-10-05T12:04:33.227Z,3.87
2022-10-05T12:07:43.414Z,3.62
2022-10-05T12:10:37.405Z,4.87
2022-10-05T12:13:14.275Z,4.65
2022-10-05T12:15:48.393Z,4.53
2022-10-05T12:18:24.977Z,6.28
2022-10-05T12:20:56.721Z,3.28
2022-10-05T12:23:42.215Z,3.42
2022-10-05T12:26:15.038Z,3.83
2022-10-05T12:28:47.945Z,2.87
2022-10-05T12:31:52.144Z,2.70
2022-10-05T12:34:25.021Z,5.70
2022-10-05T12:37:03.912Z,2.97
2022-10-05T12:39:59.153Z,5.72
2022-10-05T12:42:32.353Z,4.90
2022-10-05T12:45:20.161Z,3.00
2022-10-05T12:48:05.149Z,3.08
2022-10-05T12:50:44.366Z,2.42
2022-10-05T12:53:32.953Z,5.90
2022-10-05T12:56:38.473Z,4.68
2022-10-05T12:59:08.599Z,4.20
2022-10-05T13:01:46.824Z,3.80
2022-10-05T13:04:31.201Z,8.05
2022-10-05T13:10:19.331Z,3.87
2022-10-05T13:12:53.031Z,4.43
2022-10-05T13:15:27.933Z,7.68
2022-10-05T13:18:04.101Z,2.45
2022-10-05T13:20:46.933Z,3.80
2022-10-05T13:23:25.351Z,4.35
2022-10-05T13:25:55.347Z,3.60
2022-10-05T13:28:30.865Z,3.15
2022-10-05T13:31:05.037Z,2.95
2022-10-05T13:33:53.842Z,2.97
2022-10-05T13:36:33.218Z,3.92
2022-10-05T13:39:21.559Z,3.17
2022-10-05T13:41:59.657Z,3.92
2022-10-05T13:44:46.799Z,7.47
2022-10-05T13:47:32.895Z,3.60
2022-10-05T13:50:07.518Z,3.72
2022-10-05T13:52:42.228Z,2.62
2022-10-05T13:55:35.282Z,4.05
2022-10-05T13:58:06.552Z,3.97
2022-10-05T14:00:41.625Z,4.50
2022-10-05T14:03:27.913Z,3.60
2022-10-05T14:05:59.987Z,7.68
2022-10-05T14:08:29.765Z,4.15
2022-10-05T14:10:56.906Z,4.93
2022-10-05T14:13:29.191Z,3.97
2022-10-05T14:16:13.202Z,4.18
2022-10-05T14:19:06.116Z,2.50
2022-10-05T14:21:46.127Z,2.15
2022-10-05T14:24:45.194Z,2.12
2022-10-05T14:27:27.576Z,3.95
2022-10-05T14:30:08.281Z,2.20
2022-10-05T14:32:56.227Z,5.12
2022-10-05T14:35:30.235Z,10.45
2022-10-05T14:38:00.719Z,6.22
2022-10-05T14:40:33.276Z,6.47
2022-10-05T14:43:15.941Z,5.27
2022-10-05T14:45:57.528Z,3.25
2022-10-05T14:48:29.811Z,8.63
2022-10-05T14:50:59.543Z,7.00
2022-10-05T14:53:39.553Z,4.90
2022-10-05T14:56:17.284Z,5.62
2022-10-05T14:59:00.848Z,6.43
2022-10-05T15:01:32.693Z,3.55
2022-10-05T15:04:10.148Z,5.82
2022-10-05T15:06:47.226Z,4.80
2022-10-05T15:09:26.395Z,5.95
2022-10-05T15:11:58.685Z,7.30
2022-10-05T15:14:36.929Z,7.85
2022-10-05T15:17:13.905Z,6.03
2022-10-05T15:20:02.207Z,9.30
2022-10-05T15:22:34.288Z,8.63
2022-10-05T15:25:31.298Z,10.35
2022-10-05T15:28:17.932Z,6.50
2022-10-05T15:31:01.838Z,4.87
2022-10-05T15:33:34.458Z,13.02
2022-10-05T15:36:26.426Z,10.68
2022-10-05T15:39:12.305Z,11.07
2022-10-05T15:41:47.615Z,8.20
2022-10-05T15:44:20.661Z,9.27
2022-10-05T15:46:56.466Z,10.30
2022-10-05T15:49:50.860Z,13.65
2022-10-05T15:52:26.114Z,5.47
2022-10-05T15:55:11.391Z,9.27
2022-10-05T15:58:09.557Z,8.15
2022-10-05T16:00:47.736Z,9.57
2022-10-05T16:03:40.369Z,9.55
2022-10-05T16:06:32.742Z,17.58
2022-10-05T16:09:38.544Z,16.45
2022-10-05T16:12:09.717Z,17.50
2022-10-05T16:14:55.961Z,19.55
2022-10-05T16:17:33.921Z,13.88
2022-10-05T16:20:23.113Z,13.35
2022-10-05T16:23:02.578Z,14.00
2022-10-05T16:25:39.995Z,14.68
2022-10-05T16:28:16.324Z,14.13
2022-10-05T16:30:51.671Z,15.77
2022-10-05T16:33:27.033Z,17.62
2022-10-05T16:36:12.326Z,14.80
2022-10-05T16:39:03.729Z,18.23
2022-10-05T16:41:39.264Z,16.00
2022-10-05T16:44:27.779Z,16.33
2022-10-05T16:47:27.425Z,17.35
2022-10-05T16:50:16.087Z,14.45
2022-10-05T16:52:46.026Z,20.27
2022-10-05T16:55:19.152Z,19.37
2022-10-05T16:57:55.563Z,19.40
2022-10-05T17:00:56.296Z,19.48
2022-10-05T17:04:08.814Z,17.02
2022-10-05T17:07:04.890Z,15.25
2022-10-05T17:09:47.279Z,15.20
2022-10-05T17:12:27.560Z,17.58
2022-10-05T17:15:06.372Z,19.30
2022-10-05T17:17:33.293Z,20.27
2022-10-05T17:20:29.370Z,26.87
2022-10-05T17:23:21.407Z,21.00
2022-10-05T17:26:21.381Z,18.00
2022-10-05T17:28:51.347Z,14.27
2022-10-05T17:31:28.006Z,14.65
2022-10-05T17:34:24.868Z,19.15
2022-10-05T17:37:38.023Z,26.27
2022-10-05T17:40:32.513Z,18.87
2022-10-05T17:43:01.353Z,30.85
2022-10-05T17:45:34.249Z,20.27
2022-10-05T17:48:06.116Z,15.90
2022-10-05T17:51:04.207Z,13.93
2022-10-05T17:54:02.372Z,14.98
2022-10-05T17:56:31.337Z,18.05
2022-10-05T17:59:04.239Z,20.12
2022-10-05T18:01:41.462Z,16.98
2022-10-05T18:04:11.557Z,16.48
2022-10-05T18:06:57.137Z,15.55
2022-10-05T18:09:25.960Z,16.42
2022-10-05T18:12:08.842Z,15.82
2022-10-05T18:15:14.074Z,19.55
2022-10-05T18:20:19.124Z,22.13
2022-10-05T18:22:46.793Z,17.47
2022-10-05T18:25:27.181Z,14.70
2022-10-05T18:28:12.667Z,16.98
2022-10-05T18:30:59.167Z,13.80
2022-10-05T18:33:41.365Z,15.23
2022-10-05T18:36:27.430Z,18.30
2022-10-05T18:38:59.821Z,15.00
2022-10-05T18:41:43.044Z,13.82
2022-10-05T18:44:16.084Z,14.10
2022-10-05T18:47:20.863Z,17.83
2022-10-05T18:50:00.586Z,13.25
2022-10-05T18:52:36.283Z,19.40
2022-10-05T18:55:03.392Z,19.73
2022-10-05T18:57:40.023Z,19.15
2022-10-05T19:00:10.001Z,18.90
2022-10-05T19:02:44.924Z,19.17
2022-10-05T19:05:56.613Z,17.25
2022-10-05T19:08:59.137Z,17.95
2022-10-05T19:11:59.292Z,15.05
2022-10-05T19:14:45.283Z,12.37
2022-10-05T19:17:28.579Z,14.27
2022-10-05T19:20:09.332Z,15.85
2022-10-05T19:22:53.994Z,17.30
2022-10-05T19:25:25.984Z,16.10
2022-10-05T19:28:20.601Z,15.25
2022-10-05T19:31:09.785Z,16.20
2022-10-05T19:33:58.395Z,12.75
2022-10-05T19:36:32.515Z,12.05
2022-10-05T19:39:40.603Z,17.37
2022-10-05T19:42:28.721Z,16.40
2022-10-05T19:45:23.138Z,13.10
2022-10-05T19:48:08.751Z,15.45
2022-10-05T19:50:38.441Z,12.73
2022-10-05T19:53:19.767Z,13.00
2022-10-05T19:55:47.162Z,10.63
2022-10-05T19:58:25.968Z,11.80
2022-10-05T20:01:00.970Z,14.55
2022-10-05T20:03:30.303Z,15.70
2022-10-05T20:06:01.957Z,20.65
2022-10-05T20:08:39.409Z,16.12
2022-10-05T20:11:15.240Z,10.90
2022-10-05T20:14:06.720Z,14.70
2022-10-05T20:16:53.902Z,14.48
2022-10-05T20:19:36.237Z,9.98
2022-10-05T20:22:26.368Z,12.40
2022-10-05T20:25:18.105Z,12.37
2022-10-05T20:28:03.316Z,11.00
2022-10-05T20:30:48.994Z,12.10
2022-10-05T20:33:34.512Z,8.75
2022-10-05T20:36:20.366Z,11.90
2022-10-05T20:39:05.720Z,20.98
2022-10-05T20:41:51.740Z,12.23
2022-10-05T20:44:37.886Z,11.25
2022-10-05T20:47:24.285Z,11.68
2022-10-05T20:49:53.410Z,12.20
2022-10-05T20:52:21.428Z,11.82
2022-10-05T20:54:55.824Z,11.27
2022-10-05T20:57:24.237Z,13.70
2022-10-05T20:59:51.517Z,13.20
2022-10-05T21:02:19.549Z,11.40
2022-10-05T21:04:47.761Z,19.42
2022-10-05T21:07:16.303Z,10.27
2022-10-05T21:09:44.672Z,14.87
2022-10-05T21:12:12.542Z,13.62
2022-10-05T21:14:40.568Z,17.90
2022-10-05T21:17:07.755Z,9.13
2022-10-05T21:19:44.255Z,10.43
2022-10-05T21:22:11.941Z,12.45
2022-10-05T21:24:40.793Z,11.90
2022-10-05T21:27:08.344Z,14.02
2022-10-05T21:29:36.452Z,11.40
2022-10-05T21:32:08.574Z,13.77
2022-10-05T21:34:35.798Z,9.90
2022-10-05T21:37:02.803Z,11.77
2022-10-05T21:39:30.357Z,12.43
2022-10-05T21:41:57.370Z,13.82
2022-10-05T21:44:24.329Z,9.38
2022-10-05T21:46:51.910Z,14.15
2022-10-05T21:49:19.856Z,11.68
2022-10-05T21:51:47.568Z,12.48
2022-10-05T21:54:18.597Z,15.80
2022-10-05T21:56:49.456Z,13.57
2022-10-05T21:59:19.233Z,18.27
2022-10-05T22:01:46.330Z,10.02
2022-10-05T22:04:15.022Z,14.93
2022-10-05T22:06:42.118Z,12.18
2022-10-05T22:09:09.460Z,28.98
2022-10-05T22:11:36.775Z,13.90
2022-10-05T22:14:04.124Z,11.73
2022-10-05T22:16:33.731Z,14.00
2022-10-05T22:19:05.929Z,13.62
2022-10-05T22:21:37.850Z,12.18
2022-10-05T22:24:05.539Z,15.77
2022-10-05T22:26:32.881Z,9.52
2022-10-05T22:29:01.713Z,13.05
2022-10-05T22:31:29.132Z,11.15
2022-10-05T22:33:56.161Z,12.73
2022-10-05T22:36:23.218Z,9.18
2022-10-05T22:38:50.554Z,10.63
2022-10-05T22:41:20.527Z,11.95
2022-10-05T22:43:50.105Z,12.23
2022-10-05T22:46:18.342Z,9.80
2022-10-05T22:48:45.507Z,11.90
2022-10-05T22:51:12.657Z,10.75
2022-10-05T22:53:39.949Z,15.25
2022-10-05T23:00:08.300Z,13.02
2022-10-05T23:02:40.170Z,13.82
2022-10-05T23:05:08.261Z,13.38
2022-10-05T23:07:39.928Z,13.90
2022-10-05T23:10:08.209Z,12.70
2022-10-05T23:12:35.478Z,15.48
2022-10-05T23:15:02.640Z,12.85
2022-10-05T23:17:30.390Z,18.42
2022-10-05T23:19:57.941Z,12.25
2022-10-05T23:22:25.382Z,16.70
2022-10-05T23:24:52.493Z,18.73
2022-10-05T23:27:20.109Z,15.10
2022-10-05T23:29:47.150Z,16.92
2022-10-05T23:32:14.199Z,18.05
2022-10-05T23:34:41.496Z,16.83
2022-10-05T23:37:08.563Z,18.60
2022-10-05T23:39:35.528Z,15.80
2022-10-05T23:42:02.833Z,18.95
2022-10-05T23:44:29.872Z,15.70
2022-10-05T23:46:56.869Z,14.60
2022-10-05T23:49:24.145Z,16.75
2022-10-05T23:51:51.124Z,14.27
2022-10-05T23:54:18.126Z,20.37
2022-10-05T23:56:45.422Z,16.48
2022-10-05T23:59:12.399Z,16.15
